Terminal Aerodrome Forecast
Issued by NWS Wakefield, VA

Home | Current Version | Previous Version | Text Only | Print | Product List | Glossary On
Versions: 1 2 3 4 5 6 7 8 9 10 11 12 13 14 15 16 17 18 19
266
FTUS41 KAKQ 241931 AAA
TAFRIC
TAF AMD
KRIC 241931Z 2420/2518 03007KT P6SM SCT025
      TEMPO 2421/2501 BKN020
     FM250100 03004KT P6SM OVC015
     FM251000 02005KT P6SM BKN025=

USA.gov is the U.S. government's official web portal to all federal, state and local government web resources and services.